Osnaburg, Ohio
Current Conditions -  °F | °C
As of 4:51 PM on Saturday 25 Oct 2014 (Local Time) from KCAK Reporting Station
Few Clouds Few Clouds  
Wind Chill: 70°   Ceiling: Unl
Heat Index: 70°   Visibility: 10mi
Dew Point: 50°   Wind: 15mph
Humidity: 49%   Direction: 270°W
Pressure: 29.77"   Gusts: 29mph
Location:  40.7679°N, 81.2601°W
Report Text: KCAK 252051Z 27013G25KT 10SM FEW038 21/10 A2977 RMK AO2 PK WND 29026/2041 SLP079 T02110100 56011
Loading
Personal Weather Stations






























Interactive Weather Map
Tropical Storm Tracking
New forecast layout! Learn more

10-Day Weather Forecast

Advertisements
Track Severe Weather on mobile